La Moille, IL (61330)

08:35 PM CDT del 30 Luglio 2016 (GMT -0500)
KILSUBLE2 | | Change Station

Alt. 927 ft 41.65 °N, 89.23 °W | Updated 1 second ago

Scattered Clouds
Nubi sparse
72.1 °F
Sembra 71 °F
N
0.0
Vento Variabile Vento da Nord
Gusts 0.0 mph

Oggi
Massima -- | Minima -- °F
--% Possibilità di precip.
Ieri
Massima -- | Minima -- °F
Precip. -- in
Pressione 29.97 in
Visibilità 10.0 miglia
Nuvole Nubi sparse 3000 ft
Nubi sparse 6000 ft
Indice di calore 71 °F
Punto di rugiada 68 °F
Umidità 86%
Piovosità 0.00 in
Spessore del manto nevoso Non disponibile.
5:50 AM 8:16 PM
Luna calante, 9% visible
METAR KVYS 310115Z AUTO 04004KT 10SM SCT030 SCT060 23/21 A2997 RMK AO2 T02310209
Pressione 29.97 in
Visibilità 10.0 miglia
Nuvole Nubi sparse 3000 ft
Nubi sparse 6000 ft
Indice di calore 71 °F
Punto di rugiada 68 °F
Umidità 86%
Piovosità 0.00 in
Spessore del manto nevoso Non disponibile.
5:50 AM 8:16 PM
Luna calante, 9% visible
METAR KVYS 310115Z AUTO 04004KT 10SM SCT030 SCT060 23/21 A2997 RMK AO2 T02310209

10-Day Weather Forecast

Almanac

Astronomia

Jul. 30, 2016 Alba Tramonto
Ora attuale
Crepuscolo civile
Crepuscolo nautico
Crepuscolo astronomico
Luna
Estensione della luce visibile
Lunghezza del giorno
Tomorrow will be .
, % of the Moon is Illuminated

Gli estremi di oggi

State Highs State Lows

Community

WunderPhotos

Upload Photos

1,928,699 foto caricate!

WunderBlog® & News

Nearby

Qualità dell'aria

  Qualità dell'aria Indice AQ Inquinante
Not available.

Profondità neve

Stazione Profondità Altitudine

Attività sismica

Città  Distanza Mag. Data & Ora
Minimo Magnitudo Mostrato è 2.5.

Temperature delle acque costiere

Località Temperatura

Stations

Stazioni meteo nelle vicinanze

Ubicazione della stazione Temp. Raffreddamento del vento Punto di rugiada Umidità Vento Precip. Alt. Aggiornato Tipo
                   

Watches & Warnings

There are currently no watches in effect.